createdAt,value
2022-10-30T00:07:17.833Z,3.80
2022-10-30T00:17:20.296Z,3.53
2022-10-30T00:27:22.799Z,3.78
2022-10-30T00:37:25.421Z,3.30
2022-10-30T00:47:38.374Z,3.15
2022-10-30T00:57:43.113Z,3.97
2022-10-30T01:07:45.415Z,3.72
2022-10-30T01:18:03.534Z,3.37
2022-10-30T01:28:27.324Z,3.60
2022-10-30T01:38:36.484Z,3.60
2022-10-30T01:48:59.439Z,3.60
2022-10-30T01:59:13.003Z,3.47
2022-10-30T02:09:16.907Z,3.15
2022-10-30T02:19:19.454Z,3.60
2022-10-30T02:29:22.181Z,3.95
2022-10-30T02:39:24.503Z,3.50
2022-10-30T02:49:26.804Z,3.60
2022-10-30T02:59:30.384Z,3.10
2022-10-30T03:09:32.807Z,3.33
2022-10-30T03:19:35.965Z,3.77
2022-10-30T03:29:38.278Z,2.77
2022-10-30T03:39:40.522Z,3.23
2022-10-30T03:49:42.877Z,3.37
2022-10-30T03:59:45.338Z,3.23
2022-10-30T04:09:47.693Z,3.47
2022-10-30T04:19:49.849Z,2.97
2022-10-30T04:29:53.007Z,2.57
2022-10-30T04:39:55.203Z,2.67
2022-10-30T04:49:57.516Z,2.70
2022-10-30T04:59:59.742Z,2.63
2022-10-30T05:10:01.970Z,2.83
2022-10-30T05:20:05.350Z,2.70
2022-10-30T05:30:08.337Z,3.10
2022-10-30T05:40:11.222Z,3.00
2022-10-30T05:50:13.451Z,3.13
2022-10-30T06:00:16.490Z,2.30
2022-10-30T06:10:18.795Z,2.90
2022-10-30T06:20:23.880Z,2.87
2022-10-30T06:30:27.501Z,2.70
2022-10-30T06:40:30.368Z,2.50
2022-10-30T06:50:32.828Z,2.30
2022-10-30T07:00:35.390Z,2.40
2022-10-30T07:10:37.958Z,2.73
2022-10-30T07:20:40.460Z,2.80
2022-10-30T07:30:42.862Z,2.97
2022-10-30T07:40:45.344Z,2.43
2022-10-30T07:50:47.691Z,2.08
2022-10-30T08:00:50.389Z,1.52
2022-10-30T08:10:53.232Z,1.25
2022-10-30T08:20:55.754Z,1.60
2022-10-30T08:30:59.711Z,1.65
2022-10-30T08:41:02.851Z,1.67
2022-10-30T08:51:07.394Z,1.80
2022-10-30T09:01:10.470Z,2.03
2022-10-30T09:11:13.119Z,1.95
2022-10-30T09:21:15.850Z,2.72
2022-10-30T09:31:18.562Z,2.58
2022-10-30T09:41:39.163Z,2.10
2022-10-30T09:52:12.430Z,3.33
2022-10-30T10:02:33.617Z,2.70
2022-10-30T10:12:44.308Z,2.22
2022-10-30T10:22:51.418Z,2.72
2022-10-30T10:33:01.731Z,2.45
2022-10-30T10:43:12.732Z,2.87
2022-10-30T10:53:40.444Z,3.15
2022-10-30T11:04:04.645Z,2.62
2022-10-30T11:14:19.566Z,2.78
2022-10-30T11:24:31.285Z,2.20
2022-10-30T11:34:38.422Z,1.70
2022-10-30T11:44:51.970Z,2.08
2022-10-30T11:55:02.195Z,2.03
2022-10-30T12:05:24.968Z,1.83
2022-10-30T12:15:28.634Z,1.48
2022-10-30T12:25:32.796Z,1.77
2022-10-30T12:35:45.519Z,2.28
2022-10-30T12:45:51.642Z,2.17
2022-10-30T12:56:05.861Z,2.47
2022-10-30T13:06:17.895Z,2.25
2022-10-30T13:16:31.086Z,2.40
2022-10-30T13:26:45.116Z,2.37
2022-10-30T13:37:01.437Z,2.10
2022-10-30T13:47:19.023Z,2.10
2022-10-30T13:57:40.139Z,2.83
2022-10-30T14:08:06.039Z,2.83
2022-10-30T14:18:14.788Z,2.87
2022-10-30T14:28:23.386Z,2.90
2022-10-30T14:38:27.882Z,2.60
2022-10-30T14:49:12.025Z,3.17
2022-10-30T14:59:14.528Z,3.08
2022-10-30T15:09:32.373Z,3.17
2022-10-30T15:19:36.040Z,4.70
2022-10-30T15:29:40.196Z,4.28
2022-10-30T15:39:42.817Z,4.20
2022-10-30T15:49:57.556Z,5.20
2022-10-30T16:00:06.415Z,11.65
2022-10-30T16:10:15.439Z,4.82
2022-10-30T16:20:18.139Z,4.10
2022-10-30T16:30:20.777Z,3.53
2022-10-30T16:40:29.353Z,5.85
2022-10-30T16:50:36.712Z,5.32
2022-10-30T17:00:42.305Z,6.72
2022-10-30T17:11:01.164Z,7.30
2022-10-30T17:21:16.444Z,3.72
2022-10-30T17:31:19.139Z,4.95
2022-10-30T17:41:22.037Z,5.85
2022-10-30T17:51:24.590Z,3.47
2022-10-30T18:01:27.718Z,3.45
2022-10-30T18:11:30.398Z,4.18
2022-10-30T18:21:33.196Z,3.75
2022-10-30T18:31:35.964Z,4.57
2022-10-30T18:41:42.529Z,5.18
2022-10-30T18:51:45.120Z,4.25
2022-10-30T19:01:47.847Z,4.45
2022-10-30T19:11:50.452Z,4.53
2022-10-30T19:21:53.296Z,4.53
2022-10-30T19:31:55.893Z,3.35
2022-10-30T19:41:58.373Z,4.32
2022-10-30T19:52:01.053Z,4.15
2022-10-30T20:02:03.584Z,3.95
2022-10-30T20:12:07.398Z,3.40
2022-10-30T20:22:13.952Z,4.13
2022-10-30T20:32:16.748Z,3.97
2022-10-30T20:42:22.807Z,3.50
2022-10-30T20:52:25.358Z,3.10
2022-10-30T21:02:28.789Z,2.50
2022-10-30T21:12:31.171Z,2.47
2022-10-30T21:22:33.630Z,3.22
2022-10-30T21:32:36.068Z,2.93
2022-10-30T21:42:38.438Z,3.28
2022-10-30T21:52:41.305Z,4.10
2022-10-30T22:02:43.709Z,4.13
2022-10-30T22:12:46.266Z,4.57
2022-10-30T22:22:49.173Z,3.80
2022-10-30T22:32:52.009Z,3.30
2022-10-30T22:42:54.394Z,3.07
2022-10-30T22:52:59.614Z,3.00
2022-10-30T23:03:03.691Z,3.60
2022-10-30T23:13:07.413Z,3.42
2022-10-30T23:23:10.333Z,3.40
2022-10-30T23:33:13.741Z,3.27
2022-10-30T23:43:16.852Z,3.13
2022-10-30T23:53:19.726Z,3.33
